Terminal Aerodrome Forecast
Issued by NWS

Home | Current Version | Previous Version | Text Only | Print | Product List | Glossary On
Versions: 1 2 3 4 5 6 7 8 9 10 11 12 13 14 15 16 17 18 19 20 21 22 23 24
000
FTUS41 KRNK 111120
TAFBCB
TAF
KBCB 111120Z 1112/1212 26006KT P6SM FEW250
     FM112200 20004KT P6SM FEW150
     FM120500 VRB03KT P6SM SCT150 WS020/24035KT
     FM120800 25005KT P6SM SCT150
     FM121100 27009G18KT P6SM BKN035=

USA.gov is the U.S. government's official web portal to all federal, state and local government web resources and services.